Time;durP1;ratioP1;P1;durP2;ratioP2;P2;SDS_P1;SDS_P2;PMS_P1;PMS_P2;Temp;Humidity;BMP_temperature;BMP_pressure;BME280_temperature;BME280_humidity;BME280_pressure;Samples;Min_cycle;Max_cycle;Signal;HPM_P1;HPM_P2
2022/06/20 00:01:08;;;;;;;5.10;1.70;;;12.70;99.90;;;;;;4844269;29;20096;-81
2022/06/20 00:03:43;;;;;;;4.20;1.60;;;12.80;99.90;;;;;;4843245;29;20038;-82
2022/06/20 00:06:15;;;;;;;5.13;2.37;;;12.80;99.90;;;;;;4856258;29;20038;-81
2022/06/20 00:08:41;;;;;;;8.45;2.38;;;12.80;99.90;;;;;;4838149;29;20388;-81
2022/06/20 00:11:16;;;;;;;7.37;1.97;;;12.80;99.90;;;;;;4853406;29;20048;-82
2022/06/20 00:13:45;;;;;;;5.57;1.80;;;12.80;99.90;;;;;;4858559;29;20094;-81
2022/06/20 00:16:16;;;;;;;8.53;2.80;;;12.70;99.90;;;;;;4850714;29;20041;-81
2022/06/20 00:18:42;;;;;;;7.67;2.43;;;12.70;99.90;;;;;;4851664;29;20041;-81
2022/06/20 00:21:12;;;;;;;7.90;2.33;;;12.70;99.90;;;;;;4851882;29;20037;-81
2022/06/20 00:23:37;;;;;;;6.70;1.97;;;12.70;99.90;;;;;;4851208;29;20069;-81
2022/06/20 00:26:03;;;;;;;3.83;1.90;;;12.60;99.90;;;;;;4832193;29;20128;-81
2022/06/20 00:28:29;;;;;;;3.20;1.90;;;12.60;99.90;;;;;;4851814;29;20067;-81
2022/06/20 00:30:55;;;;;;;10.43;2.23;;;12.60;99.90;;;;;;4846903;29;20577;-81
2022/06/20 00:33:21;;;;;;;6.77;2.07;;;12.60;99.90;;;;;;4849898;29;20067;-81
2022/06/20 00:35:47;;;;;;;4.20;1.90;;;12.50;99.90;;;;;;4828267;29;20483;-81
2022/06/20 00:38:19;;;;;;;5.70;2.10;;;12.50;99.90;;;;;;4847459;29;20061;-81
2022/06/20 00:40:49;;;;;;;;;;;12.40;99.90;;;;;;4832295;29;20174;-82
2022/06/20 00:43:30;;;;;;;5.73;2.07;;;12.40;99.90;;;;;;4869226;29;19927;-81
2022/06/20 00:45:58;;;;;;;6.33;2.13;;;12.40;99.90;;;;;;4852531;29;20042;-81
2022/06/20 00:48:56;;;;;;;6.07;2.00;;;12.40;99.90;;;;;;4842622;29;20509;-82
2022/06/20 00:51:37;;;;;;;7.07;2.20;;;12.50;99.90;;;;;;4836050;29;20068;-81
2022/06/20 00:55:17;;;;;;;5.83;2.50;;;12.50;99.90;;;;;;4857005;29;20108;-82
2022/06/20 00:57:49;;;;;;;6.03;1.87;;;12.60;99.90;;;;;;4701346;30;20132;-81
2022/06/20 01:00:30;;;;;;;4.23;2.00;;;12.60;99.90;;;;;;4770304;30;20371;-81
2022/06/20 01:03:17;;;;;;;5.37;2.37;;;12.60;99.90;;;;;;4823823;29;20120;-82
2022/06/20 01:05:43;;;;;;;9.80;2.63;;;12.70;99.90;;;;;;4852296;29;20042;-81
2022/06/20 01:08:18;;;;;;;6.67;2.40;;;12.70;99.90;;;;;;4843248;29;20040;-81
2022/06/20 01:10:49;;;;;;;9.57;3.13;;;12.80;99.90;;;;;;4855052;29;20096;-81
2022/06/20 01:13:18;;;;;;;7.03;2.60;;;12.80;99.90;;;;;;4850886;29;20048;-81
2022/06/20 01:15:45;;;;;;;9.60;2.60;;;12.90;99.90;;;;;;4852120;29;20045;-81
2022/06/20 01:18:23;;;;;;;6.90;2.70;;;12.90;99.90;;;;;;4861015;29;20392;-81
2022/06/20 01:20:51;;;;;;;6.73;2.43;;;12.90;99.90;;;;;;4853601;29;20056;-81
2022/06/20 01:23:43;;;;;;;6.83;2.70;;;12.90;99.90;;;;;;4836366;29;20075;-81
2022/06/20 01:26:17;;;;;;;6.47;2.40;;;13.00;99.90;;;;;;4859414;29;20057;-81
2022/06/20 01:28:47;;;;;;;5.23;2.30;;;12.90;99.90;;;;;;4862084;29;20053;-81
2022/06/20 01:31:15;;;;;;;8.20;2.40;;;13.00;99.90;;;;;;4868647;29;20064;-81
2022/06/20 01:33:41;;;;;;;8.83;2.90;;;13.00;99.90;;;;;;4870436;29;20830;-81
2022/06/20 01:38:57;;;;;;;7.97;2.63;;;13.00;99.90;;;;;;4855073;29;20069;-81
2022/06/20 01:44:10;;;;;;;4.13;2.30;;;12.90;99.90;;;;;;4851640;29;20056;-81
2022/06/20 01:46:36;;;;;;;6.43;2.30;;;13.00;99.90;;;;;;4846064;29;20124;-81
2022/06/20 01:49:16;;;;;;;6.80;2.57;;;13.00;99.90;;;;;;4835863;29;20044;-81
2022/06/20 01:52:00;;;;;;;13.60;3.07;;;13.00;99.90;;;;;;4860633;29;20036;-81
2022/06/20 01:54:30;;;;;;;7.23;3.00;;;13.00;99.90;;;;;;4855615;29;20814;-81
2022/06/20 01:56:56;;;;;;;7.13;2.53;;;12.90;99.90;;;;;;4849987;29;20052;-81
2022/06/20 01:59:27;;;;;;;7.37;2.20;;;12.90;99.90;;;;;;4856531;29;20052;-81
2022/06/20 02:01:53;;;;;;;6.78;2.97;;;12.90;99.90;;;;;;4861428;29;20093;-81
2022/06/20 02:04:23;;;;;;;7.00;2.47;;;12.80;99.90;;;;;;4843285;29;20132;-81
2022/06/20 02:06:51;;;;;;;9.60;3.10;;;12.80;99.90;;;;;;4857398;29;20479;-81
2022/06/20 02:09:17;;;;;;;7.07;2.73;;;12.80;99.90;;;;;;4857962;29;21513;-81
2022/06/20 02:11:46;;;;;;;10.90;3.10;;;12.80;99.90;;;;;;4845410;29;20044;-81
2022/06/20 02:14:26;;;;;;;7.43;2.50;;;12.70;99.90;;;;;;4840805;29;20085;-81
2022/06/20 02:16:59;;;;;;;8.40;2.67;;;12.70;99.90;;;;;;4842553;29;20042;-81
2022/06/20 02:19:32;;;;;;;7.70;2.80;;;12.60;99.90;;;;;;4858110;29;20071;-82
2022/06/20 02:22:01;;;;;;;6.87;2.80;;;12.60;99.90;;;;;;4860878;29;20041;-81
2022/06/20 02:24:31;;;;;;;5.30;2.70;;;12.60;99.90;;;;;;4857841;29;20053;-81
2022/06/20 02:27:01;;;;;;;9.33;2.87;;;12.60;99.90;;;;;;4844419;29;20057;-81
2022/06/20 02:29:29;;;;;;;8.67;2.73;;;12.60;99.90;;;;;;4854998;29;20093;-81
2022/06/20 02:32:16;;;;;;;4.20;2.33;;;12.50;99.90;;;;;;4856841;29;20040;-81
2022/06/20 02:34:41;;;;;;;8.27;2.70;;;12.50;99.90;;;;;;4842661;29;20465;-81
2022/06/20 02:37:13;;;;;;;8.23;3.20;;;12.50;99.90;;;;;;4856262;29;20059;-81
2022/06/20 02:39:41;;;;;;;7.72;2.63;;;12.50;99.90;;;;;;4854641;29;20520;-81
2022/06/20 02:42:39;;;;;;;7.87;2.70;;;12.50;99.90;;;;;;4867172;29;21445;-81
2022/06/20 02:45:10;;;;;;;6.90;2.80;;;12.40;99.90;;;;;;4853727;29;20053;-81
2022/06/20 02:47:40;;;;;;;10.07;2.97;;;12.40;99.90;;;;;;4856275;29;20050;-82
2022/06/20 02:50:06;;;;;;;5.70;2.50;;;12.30;99.90;;;;;;4855486;29;20053;-81
2022/06/20 02:52:43;;;;;;;6.30;3.00;;;12.30;99.90;;;;;;4835586;29;20091;-81
2022/06/20 02:55:11;;;;;;;7.33;2.70;;;12.30;99.90;;;;;;4847325;29;20041;-81
2022/06/20 02:57:47;;;;;;;8.00;2.57;;;12.20;99.90;;;;;;4838885;29;20040;-81
2022/06/20 03:00:19;;;;;;;5.73;2.90;;;12.10;99.90;;;;;;4856821;29;20096;-82
2022/06/20 03:02:52;;;;;;;6.38;2.60;;;12.10;99.90;;;;;;4854953;29;20435;-82
2022/06/20 03:05:18;;;;;;;8.50;2.70;;;12.10;99.90;;;;;;4859872;29;20052;-81
2022/06/20 03:07:45;;;;;;;8.33;2.67;;;12.00;99.90;;;;;;4852554;29;20377;-81
2022/06/20 03:10:25;;;;;;;6.33;2.50;;;12.00;99.90;;;;;;4850892;29;20056;-82
2022/06/20 03:12:52;;;;;;;7.10;2.60;;;11.90;99.90;;;;;;4855195;29;20049;-82
2022/06/20 03:15:18;;;;;;;4.90;2.37;;;11.90;99.90;;;;;;4868784;29;20051;-81
2022/06/20 03:17:46;;;;;;;6.60;2.97;;;11.80;99.90;;;;;;4840058;29;20056;-81
2022/06/20 03:20:14;;;;;;;4.43;2.67;;;11.80;99.90;;;;;;4844305;29;20575;-82
2022/06/20 03:23:04;;;;;;;7.33;2.67;;;11.80;99.90;;;;;;4841536;29;20102;-82
2022/06/20 03:25:31;;;;;;;5.83;2.53;;;11.80;99.90;;;;;;4868808;29;20152;-81
2022/06/20 03:27:57;;;;;;;8.67;2.70;;;11.70;99.90;;;;;;4840736;29;20056;-81
2022/06/20 03:30:26;;;;;;;8.67;3.27;;;11.80;99.90;;;;;;4863517;29;20044;-81
2022/06/20 03:32:52;;;;;;;8.37;2.57;;;11.80;99.90;;;;;;4848373;29;20398;-82
2022/06/20 03:35:18;;;;;;;5.20;2.50;;;11.70;99.90;;;;;;4846083;29;20049;-81
2022/06/20 03:37:44;;;;;;;7.27;2.50;;;11.80;99.90;;;;;;4845836;29;20045;-81
2022/06/20 03:40:10;;;;;;;5.43;2.43;;;11.90;99.90;;;;;;4855704;29;20048;-81
2022/06/20 03:42:37;;;;;;;6.57;2.50;;;11.90;99.90;;;;;;4845254;29;20076;-81
2022/06/20 03:45:06;;;;;;;4.37;2.53;;;11.90;99.90;;;;;;4859700;29;20045;-82
2022/06/20 03:47:39;;;;;;;5.67;2.60;;;11.90;99.90;;;;;;4862133;29;20464;-82
2022/06/20 03:50:08;;;;;;;7.13;2.53;;;12.00;99.90;;;;;;4852297;29;20055;-82
2022/06/20 03:52:42;;;;;;;5.57;2.80;;;12.00;99.90;;;;;;4845462;29;20048;-82
2022/06/20 03:55:18;;;;;;;6.30;2.30;;;11.90;99.90;;;;;;4846465;29;20044;-82
2022/06/20 03:58:12;;;;;;;7.27;2.63;;;11.80;99.90;;;;;;4837854;29;20104;-82
2022/06/20 04:00:56;;;;;;;6.23;2.73;;;11.80;99.90;;;;;;4836323;29;20894;-82
2022/06/20 04:03:33;;;;;;;3.70;2.50;;;11.80;99.90;;;;;;4834014;29;20048;-82
2022/06/20 04:06:12;;;;;;;5.03;2.73;;;11.80;99.90;;;;;;4878449;29;20025;-82
2022/06/20 04:12:07;;;;;;;4.68;2.47;;;11.70;99.90;;;;;;4855397;29;20049;-82
2022/06/20 04:14:55;;;;;;;6.20;2.60;;;11.60;99.90;;;;;;4855458;29;20041;-82
2022/06/20 04:20:55;;;;;;;5.23;3.10;;;11.60;99.90;;;;;;4796290;29;20054;-82
2022/06/20 04:23:48;;;;;;;4.83;2.90;;;11.60;99.90;;;;;;4792556;29;20047;-82
2022/06/20 04:26:20;;;;;;;5.97;2.83;;;11.70;99.90;;;;;;4824586;29;20193;-82
2022/06/20 04:28:52;;;;;;;;;;;11.70;99.90;;;;;;4838218;29;20096;-82
2022/06/20 04:31:42;;;;;;;8.97;3.30;;;11.70;99.90;;;;;;4836985;29;19920;-82
2022/06/20 04:34:33;;;;;;;7.23;3.00;;;11.80;99.90;;;;;;4827931;29;20045;-82
2022/06/20 04:37:25;;;;;;;6.37;3.20;;;11.90;99.90;;;;;;4825602;29;20404;-82
2022/06/20 04:40:06;;;;;;;8.17;3.27;;;12.00;99.90;;;;;;4848195;29;20105;-81
2022/06/20 04:42:50;;;;;;;9.40;3.47;;;12.10;99.90;;;;;;4824784;29;20045;-82
2022/06/20 04:45:28;;;;;;;5.93;3.43;;;12.20;99.90;;;;;;4832165;29;20069;-81
2022/06/20 04:48:07;;;;;;;6.23;3.50;;;12.30;99.90;;;;;;4849813;29;20038;-82
2022/06/20 04:50:34;;;;;;;6.17;3.00;;;12.40;99.90;;;;;;4840436;29;20523;-81
2022/06/20 04:53:08;;;;;;;5.47;3.33;;;12.60;99.90;;;;;;4841499;29;20088;-81
2022/06/20 04:55:38;;;;;;;9.90;3.50;;;12.60;99.90;;;;;;4836517;29;20050;-82
2022/06/20 04:58:06;;;;;;;8.83;3.40;;;12.70;99.90;;;;;;4825373;29;20488;-81
2022/06/20 05:00:44;;;;;;;7.37;3.40;;;12.80;99.90;;;;;;4845412;29;20144;-82
2022/06/20 05:03:20;;;;;;;6.23;3.17;;;12.80;99.90;;;;;;4841507;29;20045;-82
2022/06/20 05:05:50;;;;;;;9.73;3.30;;;12.80;99.90;;;;;;4813606;29;20422;-82
2022/06/20 05:08:24;;;;;;;9.67;3.40;;;12.80;99.90;;;;;;4822264;29;20610;-81
2022/06/20 05:10:55;;;;;;;8.67;3.20;;;12.80;99.90;;;;;;4838358;29;20046;-82
2022/06/20 05:13:43;;;;;;;8.13;3.40;;;12.80;99.90;;;;;;4832312;29;20053;-82
2022/06/20 05:16:20;;;;;;;5.27;3.00;;;12.90;99.90;;;;;;4838705;29;20504;-82
2022/06/20 05:18:50;;;;;;;7.97;4.10;;;12.90;99.90;;;;;;4844594;29;20053;-82
2022/06/20 05:21:20;;;;;;;8.07;3.50;;;13.00;99.90;;;;;;4833799;29;20040;-81
2022/06/20 05:23:49;;;;;;;6.47;3.10;;;13.00;99.90;;;;;;4843887;29;20047;-82
2022/06/20 05:26:20;;;;;;;10.00;3.60;;;13.00;99.90;;;;;;4853867;29;20096;-81
2022/06/20 05:28:49;;;;;;;8.70;3.40;;;13.10;99.90;;;;;;4849241;29;20451;-82
2022/06/20 05:31:32;;;;;;;6.00;3.70;;;13.10;99.90;;;;;;4861893;29;20034;-82
2022/06/20 05:34:01;;;;;;;9.50;3.90;;;13.20;99.90;;;;;;4844282;29;20048;-81
2022/06/20 05:36:52;;;;;;;14.20;3.93;;;13.20;99.90;;;;;;4865572;29;20053;-82
2022/06/20 05:39:31;;;;;;;8.40;3.90;;;13.20;99.90;;;;;;4860023;29;20153;-82
2022/06/20 05:41:58;;;;;;;7.90;3.50;;;13.30;99.90;;;;;;4861150;29;20117;-82
2022/06/20 05:44:24;;;;;;;8.63;3.87;;;13.30;99.90;;;;;;4878773;29;20063;-82
2022/06/20 05:46:59;;;;;;;5.23;3.40;;;13.40;99.90;;;;;;4853204;29;20048;-82
2022/06/20 05:49:33;;;;;;;13.03;3.80;;;13.60;99.90;;;;;;4870451;29;20115;-82
2022/06/20 05:51:59;;;;;;;11.23;4.00;;;13.60;99.90;;;;;;4863003;29;20052;-82
2022/06/20 05:54:35;;;;;;;10.33;3.80;;;13.70;99.90;;;;;;4856591;29;20590;-81
2022/06/20 05:57:15;;;;;;;7.17;3.70;;;13.80;99.90;;;;;;4863486;29;20045;-82
2022/06/20 05:59:54;;;;;;;9.73;4.00;;;14.10;99.90;;;;;;4858060;29;20511;-82
2022/06/20 06:02:26;;;;;;;10.67;4.00;;;14.20;99.90;;;;;;4864423;29;20128;-82
2022/06/20 06:05:04;;;;;;;7.50;3.50;;;14.40;99.90;;;;;;4875717;29;20060;-82
2022/06/20 06:07:41;;;;;;;11.73;3.90;;;14.50;99.90;;;;;;4863338;29;20061;-82
2022/06/20 06:10:21;;;;;;;9.10;4.10;;;14.60;99.90;;;;;;4850467;29;20045;-83
2022/06/20 06:12:55;;;;;;;7.33;3.77;;;14.80;99.90;;;;;;4851684;29;20161;-82
2022/06/20 06:16:46;;;;;;;10.07;4.30;;;15.00;99.90;;;;;;4873926;29;20398;-82
2022/06/20 06:18:31;;;;;;;9.18;3.60;;;15.20;99.90;;;;;;4880613;29;20060;-82
2022/06/20 06:20:56;;;;;;;9.55;3.92;;;15.30;99.90;;;;;;4875543;29;20057;-82
2022/06/20 06:23:22;;;;;;;9.52;3.92;;;15.50;99.90;;;;;;4849946;29;20400;-82
2022/06/20 06:25:48;;;;;;;9.60;3.50;;;15.50;99.90;;;;;;4870057;29;20049;-81
2022/06/20 06:28:21;;;;;;;12.35;4.15;;;15.60;99.90;;;;;;4864006;29;20048;-81
2022/06/20 06:31:04;;;;;;;12.85;4.15;;;15.50;99.90;;;;;;4873703;29;20045;-81
2022/06/20 06:33:47;;;;;;;8.65;3.83;;;15.50;99.90;;;;;;4856123;29;20555;-81
2022/06/20 06:36:31;;;;;;;11.90;3.85;;;15.60;99.90;;;;;;4872736;29;20450;-81
2022/06/20 06:39:28;;;;;;;9.60;4.07;;;15.80;99.90;;;;;;4882352;29;20868;-82
2022/06/20 06:41:56;;;;;;;9.43;4.00;;;15.70;99.90;;;;;;4888044;29;20069;-82
2022/06/20 06:44:28;;;;;;;8.50;3.80;;;15.70;99.90;;;;;;4855639;29;20076;-82
2022/06/20 06:46:55;;;;;;;10.93;3.92;;;15.60;99.90;;;;;;4841070;29;20045;-81
2022/06/20 06:49:40;;;;;;;7.88;3.60;;;15.40;99.90;;;;;;4875917;29;20143;-81
2022/06/20 06:52:11;;;;;;;10.90;3.72;;;15.30;99.90;;;;;;4855890;29;20083;-82
2022/06/20 06:55:01;;;;;;;8.80;3.47;;;15.40;99.90;;;;;;4841347;29;20049;-82
2022/06/20 06:57:43;;;;;;;10.40;3.55;;;15.50;99.90;;;;;;4862770;29;20051;-82
2022/06/20 07:00:30;;;;;;;7.05;2.92;;;15.50;99.90;;;;;;4872663;29;20048;-82
2022/06/20 07:03:03;;;;;;;8.00;3.22;;;15.40;99.90;;;;;;4863352;29;20088;-82
2022/06/20 07:05:32;;;;;;;8.35;3.42;;;15.20;99.90;;;;;;4859984;29;20099;-82
2022/06/20 07:08:11;;;;;;;6.78;3.08;;;15.30;99.90;;;;;;4849839;29;20045;-83
2022/06/20 07:10:47;;;;;;;4.80;3.17;;;15.50;99.90;;;;;;4850939;29;20416;-82
2022/06/20 07:13:46;;;;;;;6.88;3.10;;;15.50;99.90;;;;;;4847810;29;20156;-82
2022/06/20 07:16:25;;;;;;;7.97;3.22;;;15.80;99.90;;;;;;4860061;29;20073;-82
2022/06/20 07:18:53;;;;;;;8.68;3.00;;;16.20;99.90;;;;;;4865087;29;20498;-82
2022/06/20 07:21:22;;;;;;;7.43;3.00;;;16.50;99.90;;;;;;4848666;29;20230;-82
2022/06/20 07:23:59;;;;;;;8.10;2.85;;;16.70;99.90;;;;;;4862552;29;20044;-82
2022/06/20 07:26:34;;;;;;;7.80;3.30;;;16.80;99.90;;;;;;4886608;29;20060;-82
2022/06/20 07:29:11;;;;;;;11.02;3.22;;;16.80;99.90;;;;;;4865008;29;20057;-83
2022/06/20 07:31:45;;;;;;;8.60;3.40;;;16.50;99.90;;;;;;4855125;29;20048;-83
2022/06/20 07:34:31;;;;;;;9.13;3.67;;;16.30;99.90;;;;;;4880744;29;20052;-84
2022/06/20 07:37:18;;;;;;;11.00;3.63;;;16.40;99.90;;;;;;4873111;29;20391;-82
2022/06/20 07:39:50;;;;;;;7.20;3.10;;;16.50;99.90;;;;;;4865904;29;20414;-83
2022/06/20 07:42:22;;;;;;;;;;;16.70;99.90;;;;;;4863247;29;20052;-84
2022/06/20 07:44:59;;;;;;;8.40;3.42;;;16.90;99.90;;;;;;4871660;29;19920;-84
2022/06/20 07:47:41;;;;;;;6.18;2.85;;;17.20;99.90;;;;;;4871316;29;20177;-82
2022/06/20 07:50:11;;;;;;;9.52;3.13;;;17.60;99.90;;;;;;4859438;29;20049;-82
2022/06/20 07:52:49;;;;;;;8.10;3.53;;;17.90;99.90;;;;;;4871899;29;20120;-84
2022/06/20 07:55:20;;;;;;;7.53;2.90;;;18.00;99.90;;;;;;4859372;29;20112;-82
2022/06/20 07:58:03;;;;;;;10.82;3.45;;;18.00;99.90;;;;;;4870853;29;20054;-83
2022/06/20 08:00:36;;;;;;;8.77;3.30;;;17.60;99.90;;;;;;4848058;29;20530;-82
2022/06/20 08:03:08;;;;;;;7.85;3.28;;;17.30;99.90;;;;;;4844966;29;20431;-82
2022/06/20 08:05:42;;;;;;;7.00;3.00;;;17.00;99.90;;;;;;4861767;29;20148;-82
2022/06/20 08:08:34;;;;;;;7.95;3.78;;;16.90;99.90;;;;;;4846657;29;20040;-82
2022/06/20 08:11:06;;;;;;;8.13;3.40;;;16.70;99.90;;;;;;4877870;29;20135;-82
2022/06/20 08:13:53;;;;;;;10.02;3.40;;;16.50;99.90;;;;;;4865035;29;20123;-82
2022/06/20 08:16:27;;;;;;;8.07;3.20;;;16.40;99.90;;;;;;4849726;29;20050;-82
2022/06/20 08:18:53;;;;;;;9.18;3.60;;;16.40;99.90;;;;;;4861874;29;20053;-82
2022/06/20 08:21:28;;;;;;;6.90;3.08;;;16.40;99.90;;;;;;4858097;29;20111;-83
2022/06/20 08:24:03;;;;;;;7.93;3.22;;;16.60;99.90;;;;;;4845959;29;20499;-82
2022/06/20 08:26:33;;;;;;;7.32;3.08;;;16.70;99.90;;;;;;4870777;29;20061;-82
2022/06/20 08:29:12;;;;;;;7.00;3.00;;;16.80;99.90;;;;;;4846041;29;20107;-82
2022/06/20 08:31:46;;;;;;;11.65;3.28;;;17.10;99.90;;;;;;4861989;29;20044;-82
2022/06/20 08:34:31;;;;;;;8.43;3.22;;;17.50;99.90;;;;;;4863852;29;20087;-82
2022/06/20 08:37:26;;;;;;;8.88;2.83;;;18.00;99.90;;;;;;4860807;29;20036;-82
2022/06/20 08:40:01;;;;;;;8.82;2.97;;;18.30;99.90;;;;;;4865276;29;20143;-83
2022/06/20 08:42:48;;;;;;;6.72;2.90;;;18.40;99.90;;;;;;4861077;29;20683;-82
2022/06/20 08:45:32;;;;;;;9.05;3.17;;;18.20;99.90;;;;;;4877842;29;20055;-81
2022/06/20 08:48:17;;;;;;;6.70;3.03;;;17.80;99.90;;;;;;4860597;29;20145;-82
2022/06/20 08:51:19;;;;;;;7.15;2.75;;;17.40;99.90;;;;;;4864334;29;20044;-82
2022/06/20 08:54:04;;;;;;;5.97;2.08;;;17.00;99.90;;;;;;4862896;29;20502;-83
2022/06/20 08:56:51;;;;;;;7.15;2.70;;;16.80;99.90;;;;;;4873279;29;20045;-82
2022/06/20 08:59:17;;;;;;;6.38;2.80;;;16.70;99.90;;;;;;4853805;29;20053;-82
2022/06/20 09:02:15;;;;;;;6.72;2.80;;;17.00;99.90;;;;;;4864469;29;20097;-82
2022/06/20 09:05:04;;;;;;;5.43;2.30;;;17.50;99.90;;;;;;4859612;29;20135;-82
2022/06/20 09:07:39;;;;;;;5.47;2.08;;;18.00;99.90;;;;;;4858351;29;20060;-82
2022/06/20 09:11:00;;;;;;;4.45;2.03;;;18.30;99.90;;;;;;4863433;29;20177;-82
2022/06/20 09:13:32;;;;;;;3.78;1.98;;;18.80;99.90;;;;;;4834285;29;20052;-82
2022/06/20 09:16:17;;;;;;;5.38;1.88;;;18.80;99.90;;;;;;4897571;29;20589;-82
2022/06/20 09:19:13;;;;;;;6.28;2.03;;;18.50;99.90;;;;;;4882292;29;20036;-82
2022/06/20 09:21:52;;;;;;;5.50;1.58;;;18.30;99.90;;;;;;4869569;29;20045;-81
2022/06/20 09:24:26;;;;;;;5.43;1.23;;;18.20;99.90;;;;;;4857079;29;20053;-82
2022/06/20 09:27:05;;;;;;;4.03;1.67;;;18.10;99.90;;;;;;4873928;29;20100;-82
2022/06/20 09:29:57;;;;;;;4.35;1.60;;;17.80;99.90;;;;;;4871455;29;20771;-82
2022/06/20 09:32:52;;;;;;;3.97;1.80;;;17.60;99.90;;;;;;4873735;29;20041;-82
2022/06/20 09:35:24;;;;;;;4.95;1.90;;;17.50;99.90;;;;;;4872212;29;20052;-81
2022/06/20 09:38:18;;;;;;;3.47;1.90;;;17.40;99.90;;;;;;4863450;29;20051;-81
2022/06/20 09:40:59;;;;;;;5.10;1.83;;;17.60;99.90;;;;;;4863701;29;20049;-81
2022/06/20 09:43:41;;;;;;;4.43;1.65;;;17.90;99.90;;;;;;4875582;29;20096;-82
2022/06/20 09:46:32;;;;;;;3.85;1.90;;;17.90;99.90;;;;;;4863634;29;20098;-81
2022/06/20 09:49:04;;;;;;;3.28;1.80;;;17.80;99.90;;;;;;4855272;29;20495;-81
2022/06/20 09:52:02;;;;;;;3.47;1.75;;;17.70;99.90;;;;;;4859797;29;20056;-82
2022/06/20 09:54:45;;;;;;;3.85;2.08;;;17.60;99.90;;;;;;4870524;29;20112;-82
2022/06/20 09:57:42;;;;;;;5.63;2.30;;;17.50;99.90;;;;;;4862089;29;20042;-82
2022/06/20 10:00:29;;;;;;;5.38;1.88;;;17.50;99.90;;;;;;4861465;29;20390;-82
2022/06/20 10:03:07;;;;;;;7.25;2.63;;;17.80;99.90;;;;;;4864026;29;20037;-81
2022/06/20 10:05:47;;;;;;;7.18;2.28;;;18.30;99.90;;;;;;4855677;29;20037;-82
2022/06/20 10:08:22;;;;;;;5.97;2.20;;;18.80;99.90;;;;;;4859668;29;20470;-84
2022/06/20 10:11:00;;;;;;;4.65;2.55;;;19.20;99.90;;;;;;4877437;29;20056;-81
2022/06/20 10:13:37;;;;;;;2.80;1.63;;;19.10;99.90;;;;;;4858015;29;20045;-82
2022/06/20 10:16:42;;;;;;;4.70;2.28;;;18.90;99.90;;;;;;4861673;29;20061;-81
2022/06/20 10:19:18;;;;;;;4.05;1.98;;;18.50;99.90;;;;;;4844601;29;20055;-82
2022/06/20 10:21:48;;;;;;;2.85;1.77;;;18.00;99.90;;;;;;4867181;29;20036;-82
2022/06/20 10:24:37;;;;;;;2.97;1.75;;;17.70;99.90;;;;;;4866304;29;20041;-82
2022/06/20 10:27:26;;;;;;;7.35;2.30;;;17.50;99.90;;;;;;4873947;29;20075;-81
2022/06/20 10:30:01;;;;;;;3.70;1.90;;;17.70;99.90;;;;;;4857709;29;20628;-82
2022/06/20 10:32:35;;;;;;;4.38;2.20;;;18.00;99.90;;;;;;4845205;29;20136;-81
2022/06/20 10:35:18;;;;;;;3.40;2.03;;;18.40;99.90;;;;;;4857137;29;20078;-81
2022/06/20 10:38:03;;;;;;;6.82;2.30;;;18.50;99.90;;;;;;4849778;29;20080;-81
2022/06/20 10:40:52;;;;;;;6.05;2.42;;;18.70;99.90;;;;;;4873628;29;20053;-82
2022/06/20 10:43:47;;;;;;;8.02;2.35;;;18.80;99.90;;;;;;4860957;29;20076;-80
2022/06/20 10:46:39;;;;;;;3.55;2.15;;;18.70;99.90;;;;;;4845710;29;20045;-81
2022/06/20 10:49:05;;;;;;;5.47;2.10;;;18.60;99.90;;;;;;4853169;29;20473;-81
2022/06/20 10:51:59;;;;;;;5.07;2.35;;;18.80;99.90;;;;;;4877072;29;20056;-81
2022/06/20 10:54:52;;;;;;;3.83;1.67;;;18.90;99.90;;;;;;4854990;29;21392;-81
2022/06/20 10:57:24;;;;;;;3.42;1.70;;;19.00;99.90;;;;;;4862869;29;20044;-82
2022/06/20 11:00:12;;;;;;;2.67;1.52;;;19.30;99.90;;;;;;4860967;29;20045;-81
2022/06/20 11:02:57;;;;;;;3.00;1.70;;;19.30;99.90;;;;;;4851303;29;20045;-81
2022/06/20 11:05:38;;;;;;;5.60;2.10;;;19.30;99.90;;;;;;4857823;29;20044;-81
2022/06/20 11:08:39;;;;;;;4.43;1.95;;;19.10;99.90;;;;;;4866857;29;20059;-81
2022/06/20 11:11:26;;;;;;;4.10;1.58;;;19.10;99.90;;;;;;4872174;29;20052;-82
2022/06/20 11:14:16;;;;;;;6.13;2.15;;;19.20;99.90;;;;;;4864651;29;20055;-81
2022/06/20 11:17:33;;;;;;;2.67;1.70;;;19.40;99.90;;;;;;4866060;29;20048;-81
2022/06/20 11:20:20;;;;;;;4.18;1.70;;;19.90;99.90;;;;;;4862122;29;20045;-81
2022/06/20 11:22:54;;;;;;;2.45;1.60;;;19.70;99.90;;;;;;4861839;29;20081;-81
2022/06/20 11:25:45;;;;;;;5.75;2.00;;;19.40;99.90;;;;;;4869241;29;20067;-81
2022/06/20 11:28:17;;;;;;;6.18;2.00;;;19.60;99.90;;;;;;4855236;29;20067;-81
2022/06/20 11:31:05;;;;;;;4.13;2.05;;;19.80;99.90;;;;;;4861886;29;20116;-80
2022/06/20 11:34:06;;;;;;;7.25;1.85;;;19.60;99.90;;;;;;4874131;29;20108;-80
2022/06/20 11:36:43;;;;;;;5.07;1.85;;;19.50;99.90;;;;;;4838865;29;20078;-81
2022/06/20 11:39:33;;;;;;;4.88;2.33;;;19.60;99.90;;;;;;4872313;29;20049;-81
2022/06/20 11:42:21;;;;;;;4.30;1.60;;;19.80;99.90;;;;;;4857484;29;20041;-81
2022/06/20 11:45:08;;;;;;;3.40;1.65;;;19.50;99.90;;;;;;4866648;29;20044;-80
2022/06/20 11:47:54;;;;;;;3.40;1.60;;;19.20;96.40;;;;;;4865182;29;20041;-81
2022/06/20 11:50:29;;;;;;;5.40;2.00;;;19.30;99.90;;;;;;4870855;29;20045;-80
2022/06/20 11:53:11;;;;;;;5.97;2.20;;;19.70;99.90;;;;;;4877612;29;20533;-81
2022/06/20 11:55:41;;;;;;;;;;;19.80;99.90;;;;;;4878570;29;20048;-81
2022/06/20 11:58:13;;;;;;;1.85;1.60;;;19.50;99.90;;;;;;4866975;29;20015;-80
2022/06/20 12:00:53;;;;;;;5.60;1.95;;;19.40;99.90;;;;;;4874445;29;20056;-82
2022/06/20 12:03:31;;;;;;;5.90;2.22;;;19.50;99.90;;;;;;4861936;29;20041;-82
2022/06/20 12:06:06;;;;;;;4.95;2.20;;;19.50;99.90;;;;;;4869122;29;20043;-81
2022/06/20 12:08:47;;;;;;;3.13;1.98;;;19.40;99.90;;;;;;4868621;29;20052;-80
2022/06/20 12:11:38;;;;;;;9.35;2.30;;;19.40;99.90;;;;;;4863085;29;20080;-82
2022/06/20 12:14:20;;;;;;;7.47;1.98;;;19.50;99.20;;;;;;4849198;29;20049;-81
2022/06/20 12:17:01;;;;;;;3.60;2.00;;;19.90;97.70;;;;;;4846772;29;20766;-80
2022/06/20 12:25:30;;;;;;;4.82;2.28;;;18.60;99.90;;;;;;4867190;29;20092;-80
2022/06/20 12:27:56;;;;;;;6.45;2.50;;;18.40;99.90;;;;;;4865501;29;20692;-81
2022/06/20 12:30:22;;;;;;;5.22;2.10;;;18.40;99.90;;;;;;4855881;29;20056;-81
2022/06/20 12:32:52;;;;;;;4.20;2.50;;;18.70;99.90;;;;;;4870183;29;20060;-80
2022/06/20 12:35:18;;;;;;;5.25;2.10;;;19.20;99.90;;;;;;4860327;29;20052;-81
2022/06/20 12:37:47;;;;;;;3.80;2.15;;;19.70;99.90;;;;;;4850152;29;20041;-81
2022/06/20 12:40:12;;;;;;;4.55;2.20;;;19.90;99.90;;;;;;4840318;29;20045;-81
2022/06/20 12:42:38;;;;;;;3.95;2.30;;;19.90;99.90;;;;;;4862967;29;20495;-81
2022/06/20 12:45:37;;;;;;;4.35;2.03;;;20.20;99.90;;;;;;4862161;29;20122;-80
2022/06/20 12:48:27;;;;;;;2.65;1.88;;;20.60;99.00;;;;;;4840988;29;20124;-81
2022/06/20 12:51:38;;;;;;;4.43;2.05;;;20.90;87.50;;;;;;4857920;29;20100;-81
2022/06/20 12:54:12;;;;;;;3.35;1.98;;;20.80;93.10;;;;;;4793601;29;20061;-81
2022/06/20 12:57:05;;;;;;;2.80;2.10;;;20.80;94.10;;;;;;4788158;29;20096;-82
2022/06/20 12:59:45;;;;;;;3.88;1.90;;;21.00;90.90;;;;;;4856287;29;20057;-81
2022/06/20 13:02:38;;;;;;;3.88;1.88;;;21.10;90.70;;;;;;4859010;29;20415;-81
2022/06/20 13:05:39;;;;;;;4.40;2.10;;;20.90;90.00;;;;;;4843147;29;20049;-83
2022/06/20 13:08:16;;;;;;;6.30;2.28;;;20.40;94.80;;;;;;4840481;29;20135;-80
2022/06/20 13:11:15;;;;;;;2.90;2.00;;;19.80;98.70;;;;;;4854821;29;20049;-81
2022/06/20 13:13:54;;;;;;;3.95;2.00;;;19.30;99.90;;;;;;4852865;29;20422;-80
2022/06/20 13:16:27;;;;;;;7.25;2.30;;;19.40;99.90;;;;;;4857225;29;20371;-80
2022/06/20 13:19:05;;;;;;;1.90;1.80;;;19.40;99.90;;;;;;4858281;29;20514;-80
2022/06/20 13:21:47;;;;;;;2.63;1.90;;;19.50;99.60;;;;;;4860404;29;20052;-81
2022/06/20 13:24:35;;;;;;;4.53;2.10;;;19.80;97.10;;;;;;4850700;29;20381;-81
2022/06/20 13:27:52;;;;;;;3.50;1.90;;;20.10;93.90;;;;;;4851851;29;20061;-81
2022/06/20 13:30:39;;;;;;;2.85;1.70;;;20.40;83.80;;;;;;4783265;29;20498;-82
2022/06/20 13:33:20;;;;;;;3.42;1.70;;;20.50;90.10;;;;;;4837886;29;20105;-82
2022/06/20 13:35:58;;;;;;;4.88;2.00;;;20.60;95.50;;;;;;4853108;29;20049;-81
2022/06/20 13:38:26;;;;;;;4.47;2.00;;;20.70;93.30;;;;;;4839790;29;20077;-83
2022/06/20 13:41:01;;;;;;;5.45;2.10;;;20.90;94.10;;;;;;4838590;29;20048;-81
2022/06/20 13:44:06;;;;;;;4.85;2.10;;;20.40;93.60;;;;;;4846655;29;20037;-80
2022/06/20 13:46:53;;;;;;;4.88;2.30;;;19.90;95.40;;;;;;4826094;29;20053;-80
2022/06/20 13:49:32;;;;;;;5.15;2.50;;;19.30;99.90;;;;;;4841311;29;20656;-81
2022/06/20 13:52:31;;;;;;;3.22;1.90;;;18.90;99.90;;;;;;4864112;29;20037;-81
2022/06/20 13:55:13;;;;;;;2.20;1.70;;;19.20;99.90;;;;;;4872475;29;20037;-80
2022/06/20 13:58:02;;;;;;;2.13;1.55;;;19.40;98.40;;;;;;4842629;29;20106;-81
2022/06/20 14:00:33;;;;;;;4.43;1.85;;;19.80;94.40;;;;;;4830293;29;20049;-81
2022/06/20 14:03:21;;;;;;;2.35;1.90;;;20.20;99.90;;;;;;4847083;29;20045;-80